createdAt,value
2022-11-20T00:01:34.732Z,93.72
2022-11-20T00:04:03.006Z,93.84
2022-11-20T00:06:31.531Z,94.00
2022-11-20T00:09:03.734Z,93.92
2022-11-20T00:11:33.822Z,93.87
2022-11-20T00:14:03.443Z,94.19
2022-11-20T00:16:34.781Z,94.18
2022-11-20T00:19:03.617Z,94.29
2022-11-20T00:21:31.898Z,94.39
2022-11-20T00:24:00.752Z,94.98
2022-11-20T00:26:30.348Z,95.37
2022-11-20T00:29:01.091Z,95.65
2022-11-20T00:31:30.510Z,95.67
2022-11-20T00:33:58.768Z,95.70
2022-11-20T00:36:28.971Z,95.58
2022-11-20T00:38:59.495Z,94.00
2022-11-20T00:41:29.459Z,93.07
2022-11-20T00:43:58.285Z,92.67
2022-11-20T00:46:28.645Z,92.15
2022-11-20T00:48:56.904Z,91.85
2022-11-20T00:51:27.531Z,91.91
2022-11-20T00:53:57.762Z,91.93
2022-11-20T00:56:26.647Z,92.42
2022-11-20T00:58:55.287Z,92.21
2022-11-20T01:01:26.380Z,92.82
2022-11-20T01:03:56.944Z,92.70
2022-11-20T01:06:26.417Z,92.82
2022-11-20T01:08:57.309Z,93.40
2022-11-20T01:11:34.850Z,93.40
2022-11-20T01:14:06.094Z,93.32
2022-11-20T01:16:37.887Z,93.58
2022-11-20T01:19:08.824Z,93.65
2022-11-20T01:21:39.884Z,93.57
2022-11-20T01:24:11.445Z,94.19
2022-11-20T01:26:41.556Z,94.81
2022-11-20T01:29:19.384Z,94.65
2022-11-20T01:31:48.389Z,94.80
2022-11-20T01:34:19.715Z,94.81
2022-11-20T01:36:48.371Z,94.12
2022-11-20T01:39:22.793Z,94.25
2022-11-20T01:42:12.512Z,94.45
2022-11-20T01:44:59.247Z,95.18
2022-11-20T01:47:45.446Z,94.76
2022-11-20T01:50:19.982Z,94.50
2022-11-20T01:52:56.468Z,94.30
2022-11-20T01:55:36.374Z,94.22
2022-11-20T01:58:05.898Z,94.49
2022-11-20T02:00:34.326Z,94.24
2022-11-20T02:03:12.907Z,94.15
2022-11-20T02:05:53.258Z,94.32
2022-11-20T02:08:22.879Z,93.75
2022-11-20T02:10:51.034Z,93.80
2022-11-20T02:13:37.800Z,93.80
2022-11-20T02:16:12.180Z,93.83
2022-11-20T02:18:41.038Z,94.79
2022-11-20T02:21:25.173Z,95.00
2022-11-20T02:24:09.777Z,95.20
2022-11-20T02:26:55.530Z,95.58
2022-11-20T02:29:54.431Z,95.67
2022-11-20T02:32:27.389Z,95.16
2022-11-20T02:34:56.438Z,95.51
2022-11-20T02:37:31.602Z,95.37
2022-11-20T02:40:00.161Z,95.40
2022-11-20T02:42:28.400Z,95.59
2022-11-20T02:44:56.594Z,95.77
2022-11-20T02:47:24.646Z,96.06
2022-11-20T02:49:52.632Z,95.81
2022-11-20T02:52:20.745Z,95.58
2022-11-20T02:54:48.773Z,95.68
2022-11-20T02:57:17.322Z,95.94
2022-11-20T02:59:45.485Z,95.93
2022-11-20T03:02:13.535Z,96.61
2022-11-20T03:04:41.823Z,96.54
2022-11-20T03:07:10.922Z,97.50
2022-11-20T03:09:39.220Z,97.24
2022-11-20T03:12:08.068Z,96.85
2022-11-20T03:14:36.195Z,96.54
2022-11-20T03:17:04.366Z,96.43
2022-11-20T03:19:32.908Z,95.88
2022-11-20T03:22:01.628Z,96.30
2022-11-20T03:24:29.671Z,96.84
2022-11-20T03:26:57.855Z,96.04
2022-11-20T03:29:26.282Z,96.06
2022-11-20T03:31:54.425Z,96.49
2022-11-20T03:34:22.480Z,96.73
2022-11-20T03:36:50.551Z,97.18
2022-11-20T03:39:18.859Z,97.19
2022-11-20T03:41:47.177Z,96.95
2022-11-20T03:44:15.311Z,97.06
2022-11-20T03:46:43.370Z,97.14
2022-11-20T03:49:11.447Z,97.19
2022-11-20T03:51:39.617Z,96.80
2022-11-20T03:54:09.700Z,96.43
2022-11-20T03:56:40.165Z,96.23
2022-11-20T03:59:11.061Z,95.69
2022-11-20T04:01:39.250Z,95.55
2022-11-20T04:04:07.561Z,95.38
2022-11-20T04:06:38.329Z,95.26
2022-11-20T04:09:07.449Z,95.09
2022-11-20T04:11:38.161Z,95.12
2022-11-20T04:14:13.701Z,94.56
2022-11-20T04:16:42.779Z,94.96
2022-11-20T04:19:13.646Z,95.42
2022-11-20T04:21:43.045Z,94.32
2022-11-20T04:24:14.268Z,94.25
2022-11-20T04:26:42.319Z,94.54
2022-11-20T04:29:13.157Z,94.66
2022-11-20T04:31:41.297Z,94.49
2022-11-20T04:34:12.550Z,94.26
2022-11-20T04:36:40.765Z,93.46
2022-11-20T04:39:15.348Z,93.89
2022-11-20T04:41:43.921Z,94.23
2022-11-20T04:44:12.098Z,94.59
2022-11-20T04:46:42.883Z,94.49
2022-11-20T04:49:12.961Z,94.76
2022-11-20T04:51:41.212Z,94.94
2022-11-20T04:54:12.302Z,94.94
2022-11-20T04:56:40.382Z,94.73
2022-11-20T04:59:08.456Z,94.89
2022-11-20T05:01:36.690Z,94.89
2022-11-20T05:04:04.869Z,94.86
2022-11-20T05:06:33.670Z,95.07
2022-11-20T05:09:02.181Z,94.13
2022-11-20T05:11:30.432Z,94.26
2022-11-20T05:14:00.910Z,94.08
2022-11-20T05:16:29.165Z,94.63
2022-11-20T05:18:58.239Z,95.10
2022-11-20T05:21:26.355Z,95.00
2022-11-20T05:23:54.549Z,94.97
2022-11-20T05:26:23.669Z,94.84
2022-11-20T05:28:52.504Z,94.26
2022-11-20T05:31:27.134Z,94.10
2022-11-20T05:33:58.184Z,94.17
2022-11-20T05:36:26.583Z,94.42
2022-11-20T05:39:00.944Z,94.75
2022-11-20T05:41:30.352Z,94.55
2022-11-20T05:43:59.967Z,94.69
2022-11-20T05:46:29.446Z,94.42
2022-11-20T05:48:59.208Z,94.37
2022-11-20T05:51:28.206Z,94.92
2022-11-20T05:53:59.829Z,94.86
2022-11-20T05:56:28.344Z,95.03
2022-11-20T05:58:57.243Z,94.60
2022-11-20T06:01:27.094Z,94.34
2022-11-20T06:03:55.493Z,94.11
2022-11-20T06:06:24.321Z,93.85
2022-11-20T06:08:52.597Z,93.73
2022-11-20T06:11:21.448Z,94.34
2022-11-20T06:13:49.827Z,95.07
2022-11-20T06:16:20.033Z,95.41
2022-11-20T06:18:48.635Z,95.32
2022-11-20T06:21:19.334Z,95.23
2022-11-20T06:23:48.247Z,95.49
2022-11-20T06:26:22.709Z,94.96
2022-11-20T06:28:51.657Z,94.66
2022-11-20T06:31:22.858Z,94.00
2022-11-20T06:33:52.000Z,94.38
2022-11-20T06:36:22.183Z,94.79
2022-11-20T06:38:51.270Z,94.67
2022-11-20T06:41:21.680Z,94.85
2022-11-20T06:43:49.999Z,94.68
2022-11-20T06:46:20.196Z,94.70
2022-11-20T06:48:49.845Z,95.12
2022-11-20T06:51:19.025Z,95.32
2022-11-20T06:53:47.217Z,95.43
2022-11-20T06:56:15.444Z,95.34
2022-11-20T06:58:43.496Z,94.89
2022-11-20T07:01:14.525Z,94.98
2022-11-20T07:03:43.739Z,95.15
2022-11-20T07:06:12.348Z,95.17
2022-11-20T07:08:40.426Z,95.53
2022-11-20T07:11:08.659Z,95.43
2022-11-20T07:13:36.706Z,95.27
2022-11-20T07:16:08.125Z,95.32
2022-11-20T07:18:37.366Z,94.97
2022-11-20T07:21:08.489Z,95.19
2022-11-20T07:23:37.165Z,95.21
2022-11-20T07:26:10.577Z,95.02
2022-11-20T07:28:39.335Z,95.14
2022-11-20T07:31:13.444Z,95.09
2022-11-20T07:33:45.757Z,95.09
2022-11-20T07:36:13.940Z,94.90
2022-11-20T07:38:42.062Z,94.63
2022-11-20T07:41:10.225Z,94.57
2022-11-20T07:43:41.200Z,94.22
2022-11-20T07:46:09.948Z,94.07
2022-11-20T07:48:38.146Z,94.49
2022-11-20T07:51:06.851Z,95.10
2022-11-20T07:53:35.030Z,95.99
2022-11-20T07:56:04.153Z,95.56
2022-11-20T07:58:34.151Z,95.01
2022-11-20T08:01:07.868Z,94.79
2022-11-20T08:03:38.840Z,94.53
2022-11-20T08:06:07.536Z,94.61
2022-11-20T08:08:40.062Z,94.62
2022-11-20T08:11:29.486Z,94.57
2022-11-20T09:04:01.057Z,93.24
2022-11-20T09:06:29.530Z,90.48
2022-11-20T09:09:02.096Z,91.58
2022-11-20T09:11:35.734Z,92.44
2022-11-20T09:14:05.682Z,92.99
2022-11-20T09:16:34.327Z,91.21
2022-11-20T09:21:59.682Z,92.38
2022-11-20T09:24:29.188Z,92.11
2022-11-20T09:26:58.586Z,91.71
2022-11-20T09:29:27.206Z,91.50
2022-11-20T09:31:57.867Z,91.14
2022-11-20T09:34:26.953Z,90.90
2022-11-20T09:36:55.675Z,91.06
2022-11-20T09:39:24.809Z,91.01
2022-11-20T09:42:27.490Z,91.55
2022-11-20T09:45:26.870Z,91.94
2022-11-20T09:48:30.501Z,91.56
2022-11-20T09:51:40.252Z,92.32
2022-11-20T09:54:20.228Z,91.01
2022-11-20T09:57:01.420Z,90.66
2022-11-20T09:59:57.200Z,91.09
2022-11-20T10:02:25.881Z,90.65
2022-11-20T10:05:01.624Z,90.11
2022-11-20T10:07:45.842Z,90.71
2022-11-20T10:10:19.345Z,88.86
2022-11-20T10:13:38.125Z,89.55
2022-11-20T10:16:19.283Z,90.33
2022-11-20T10:19:27.870Z,90.27
2022-11-20T10:22:24.137Z,90.45
2022-11-20T10:25:17.083Z,90.24
2022-11-20T10:27:55.185Z,90.47
2022-11-20T10:30:27.032Z,90.59
2022-11-20T10:33:21.660Z,90.32
2022-11-20T10:35:56.997Z,90.35
2022-11-20T10:38:51.294Z,90.25
2022-11-20T10:41:37.287Z,91.25
2022-11-20T10:44:39.695Z,90.59
2022-11-20T10:47:19.427Z,90.67
2022-11-20T10:49:57.137Z,90.49
2022-11-20T10:52:46.984Z,90.90
2022-11-20T10:55:53.546Z,90.96
2022-11-20T10:58:43.678Z,90.01
2022-11-20T11:01:25.036Z,89.60
2022-11-20T11:03:57.593Z,90.25
2022-11-20T11:06:57.874Z,89.43
2022-11-20T11:09:40.413Z,88.81
2022-11-20T11:12:16.992Z,88.97
2022-11-20T11:14:52.039Z,89.14
2022-11-20T11:17:32.760Z,89.21
2022-11-20T11:20:41.428Z,89.18
2022-11-20T11:23:39.558Z,89.55
2022-11-20T11:26:25.409Z,88.82
2022-11-20T11:29:06.991Z,88.98
2022-11-20T11:32:00.715Z,89.43
2022-11-20T11:34:36.560Z,89.53
2022-11-20T11:37:22.775Z,89.87
2022-11-20T11:40:22.463Z,90.01
2022-11-20T11:44:01.687Z,89.60
2022-11-20T11:46:39.478Z,89.22
2022-11-20T11:49:11.703Z,89.13
2022-11-20T11:52:03.899Z,89.86
2022-11-20T11:55:04.828Z,89.99
2022-11-20T11:57:39.295Z,89.91
2022-11-20T12:00:18.085Z,89.54
2022-11-20T12:03:02.577Z,89.46
2022-11-20T12:05:41.490Z,89.82
2022-11-20T12:08:15.474Z,90.07
2022-11-20T12:11:09.576Z,90.29
2022-11-20T12:13:47.122Z,90.06
2022-11-20T12:16:20.534Z,89.94
2022-11-20T12:18:54.436Z,89.32
2022-11-20T12:21:59.851Z,89.34
2022-11-20T12:24:54.249Z,89.48
2022-11-20T12:27:51.711Z,90.05
2022-11-20T12:30:22.738Z,90.99
2022-11-20T12:33:19.999Z,91.19
2022-11-20T12:35:59.777Z,90.51
2022-11-20T12:39:18.195Z,89.89
2022-11-20T12:42:56.326Z,90.21
2022-11-20T12:45:37.975Z,90.62
2022-11-20T12:48:19.562Z,90.55
2022-11-20T12:51:19.883Z,90.54
2022-11-20T12:54:18.120Z,90.72
2022-11-20T12:57:17.953Z,90.82
2022-11-20T13:00:09.272Z,90.83
2022-11-20T13:03:02.141Z,90.98
2022-11-20T13:06:02.437Z,90.99
2022-11-20T13:08:45.850Z,91.52
2022-11-20T13:11:21.918Z,91.40
2022-11-20T13:14:03.355Z,91.17
2022-11-20T13:16:39.791Z,91.63
2022-11-20T13:19:18.635Z,91.64
2022-11-20T13:21:50.739Z,92.08
2022-11-20T13:24:25.598Z,92.30
2022-11-20T13:27:19.454Z,92.30
2022-11-20T13:30:17.482Z,92.32
2022-11-20T13:33:11.940Z,92.57
2022-11-20T13:35:46.092Z,92.53
2022-11-20T13:38:16.793Z,92.97
2022-11-20T13:41:02.413Z,93.12
2022-11-20T13:43:38.901Z,93.18
2022-11-20T13:46:11.000Z,92.84
2022-11-20T13:48:45.674Z,92.76
2022-11-20T13:51:53.400Z,92.89
2022-11-20T13:54:56.180Z,92.76
2022-11-20T13:57:39.815Z,93.19
2022-11-20T14:00:31.561Z,93.67
2022-11-20T14:03:37.876Z,94.16
2022-11-20T14:06:32.930Z,94.38
2022-11-20T14:09:01.684Z,94.29
2022-11-20T14:11:32.180Z,94.24
2022-11-20T14:14:17.648Z,94.21
2022-11-20T14:16:48.110Z,93.72
2022-11-20T14:19:26.496Z,93.58
2022-11-20T14:22:19.171Z,94.30
2022-11-20T14:25:02.593Z,94.36
2022-11-20T14:27:38.285Z,94.39
2022-11-20T14:30:18.084Z,94.20
2022-11-20T14:32:51.601Z,93.78
2022-11-20T14:35:33.469Z,93.68
2022-11-20T14:38:04.810Z,93.76
2022-11-20T14:40:37.003Z,94.02
2022-11-20T14:43:20.398Z,93.71
2022-11-20T14:46:03.719Z,93.18
2022-11-20T14:48:42.255Z,93.37
2022-11-20T14:51:13.402Z,93.59
2022-11-20T14:53:48.817Z,93.46
2022-11-20T14:56:28.780Z,93.27
2022-11-20T14:58:59.447Z,93.26
2022-11-20T15:01:31.662Z,93.53
2022-11-20T15:04:11.637Z,93.68
2022-11-20T15:06:56.315Z,93.46
2022-11-20T15:09:28.188Z,93.42
2022-11-20T15:12:02.718Z,93.72
2022-11-20T15:14:34.017Z,93.59
2022-11-20T15:17:02.709Z,93.81
2022-11-20T15:19:36.199Z,93.85
2022-11-20T15:22:11.180Z,93.34
2022-11-20T15:24:42.418Z,93.59
2022-11-20T15:27:12.015Z,93.74
2022-11-20T15:29:41.110Z,93.74
2022-11-20T15:32:13.604Z,93.77
2022-11-20T15:34:43.810Z,94.08
2022-11-20T15:37:15.275Z,94.35
2022-11-20T15:39:43.849Z,94.69
2022-11-20T15:42:12.488Z,94.57
2022-11-20T15:44:45.576Z,94.21
2022-11-20T15:47:14.165Z,93.92
2022-11-20T15:49:43.254Z,93.87
2022-11-20T15:52:12.633Z,93.34
2022-11-20T15:54:42.133Z,93.08
2022-11-20T15:57:14.306Z,93.61
2022-11-20T15:59:45.651Z,93.50
2022-11-20T16:02:19.290Z,93.54
2022-11-20T16:04:49.492Z,93.23
2022-11-20T16:07:22.124Z,93.11
2022-11-20T16:09:56.649Z,93.35
2022-11-20T16:12:46.659Z,93.26
2022-11-20T16:15:34.434Z,93.43
2022-11-20T16:18:09.106Z,93.69
2022-11-20T16:20:41.498Z,93.37
2022-11-20T16:23:12.940Z,93.22
2022-11-20T16:25:44.954Z,93.62
2022-11-20T16:28:18.895Z,93.71
2022-11-20T16:30:50.105Z,93.75
2022-11-20T16:33:19.268Z,93.67
2022-11-20T16:35:48.300Z,93.24
2022-11-20T16:38:16.724Z,93.05
2022-11-20T16:40:45.279Z,93.14
2022-11-20T16:43:15.608Z,93.35
2022-11-20T16:45:46.219Z,93.21
2022-11-20T16:48:16.812Z,93.72
2022-11-20T16:50:54.385Z,93.69
2022-11-20T16:53:23.401Z,93.79
2022-11-20T16:55:52.017Z,93.74
2022-11-20T16:58:26.599Z,93.55
2022-11-20T17:00:55.464Z,93.50
2022-11-20T17:03:23.891Z,93.55
2022-11-20T17:05:53.743Z,93.75
2022-11-20T17:08:24.367Z,93.86
2022-11-20T17:10:56.619Z,94.10
2022-11-20T17:13:25.089Z,93.62
2022-11-20T17:15:54.374Z,93.65
2022-11-20T17:18:23.777Z,93.63
2022-11-20T17:20:54.110Z,93.32
2022-11-20T17:23:27.783Z,93.36
2022-11-20T17:26:04.555Z,93.22
2022-11-20T17:28:34.471Z,93.22
2022-11-20T17:31:05.388Z,93.09
2022-11-20T17:33:37.606Z,92.64
2022-11-20T17:36:10.329Z,92.48
2022-11-20T17:38:46.225Z,92.95
2022-11-20T17:41:18.263Z,92.98
2022-11-20T17:43:50.729Z,93.02
2022-11-20T17:46:22.974Z,93.30
2022-11-20T17:48:53.868Z,92.95
2022-11-20T17:51:25.909Z,92.83
2022-11-20T17:54:02.138Z,92.48
2022-11-20T17:56:53.475Z,92.13
2022-11-20T17:59:24.350Z,92.01
2022-11-20T18:01:56.708Z,91.93
2022-11-20T18:04:27.358Z,92.04
2022-11-20T18:06:58.533Z,92.14
2022-11-20T18:09:32.059Z,91.79
2022-11-20T18:12:04.267Z,91.90
2022-11-20T18:14:34.939Z,91.65
2022-11-20T18:17:21.769Z,92.12
2022-11-20T18:20:26.738Z,92.06
2022-11-20T18:22:46.096Z,92.43
2022-11-20T18:25:15.609Z,92.69
2022-11-20T18:27:45.539Z,92.71
2022-11-20T18:30:14.909Z,92.38
2022-11-20T18:32:43.754Z,92.34
2022-11-20T18:35:15.372Z,92.55
2022-11-20T18:37:50.834Z,92.91
2022-11-20T18:40:20.191Z,92.55
2022-11-20T18:43:10.738Z,92.91
2022-11-20T18:45:39.426Z,93.26
2022-11-20T18:48:16.476Z,93.25
2022-11-20T18:50:48.252Z,92.98
2022-11-20T18:53:20.998Z,92.99
2022-11-20T18:55:51.724Z,93.21
2022-11-20T18:58:23.487Z,93.50
2022-11-20T19:00:52.669Z,92.89
2022-11-20T19:03:21.734Z,92.07
2022-11-20T19:05:53.171Z,91.86
2022-11-20T19:08:22.751Z,92.32
2022-11-20T19:10:52.564Z,92.14
2022-11-20T19:13:22.494Z,92.77
2022-11-20T19:15:51.449Z,93.39
2022-11-20T19:18:20.765Z,93.14
2022-11-20T19:20:52.380Z,93.04
2022-11-20T19:23:23.976Z,92.80
2022-11-20T19:25:52.888Z,92.93
2022-11-20T19:28:21.887Z,93.09
2022-11-20T19:30:53.937Z,93.20
2022-11-20T19:33:22.977Z,93.15
2022-11-20T19:35:51.466Z,93.46
2022-11-20T19:38:21.598Z,93.41
2022-11-20T19:40:53.264Z,92.80
2022-11-20T19:43:21.877Z,91.88
2022-11-20T19:45:51.283Z,91.54
2022-11-20T19:48:19.905Z,92.09
2022-11-20T19:50:48.411Z,92.22
2022-11-20T19:53:20.056Z,92.16
2022-11-20T19:55:59.644Z,91.91
2022-11-20T19:58:29.247Z,91.81
2022-11-20T20:00:58.901Z,92.04
2022-11-20T20:03:28.432Z,92.14
2022-11-20T20:06:04.334Z,92.29
2022-11-20T20:08:37.310Z,92.45
2022-11-20T20:11:20.863Z,92.71
2022-11-20T20:13:50.040Z,92.59
2022-11-20T20:16:24.718Z,91.89
2022-11-20T20:18:58.387Z,91.99
2022-11-20T20:21:27.475Z,92.28
2022-11-20T20:23:57.537Z,92.16
2022-11-20T20:26:31.365Z,92.38
2022-11-20T20:29:04.643Z,92.88
2022-11-20T20:31:34.627Z,93.49
2022-11-20T20:34:06.337Z,93.71
2022-11-20T20:36:37.642Z,94.16
2022-11-20T20:39:06.191Z,94.30
2022-11-20T20:41:34.909Z,94.50
2022-11-20T20:44:24.255Z,94.58
2022-11-20T20:46:53.412Z,94.48
2022-11-20T20:49:22.605Z,94.13
2022-11-20T20:51:54.890Z,94.22
2022-11-20T20:54:23.478Z,94.82
2022-11-20T20:56:52.160Z,94.84
2022-11-20T20:59:22.159Z,94.66
2022-11-20T21:01:52.765Z,94.46
2022-11-20T21:04:23.707Z,94.45
2022-11-20T21:06:58.937Z,94.83
2022-11-20T21:09:28.734Z,94.85
2022-11-20T21:11:58.816Z,94.53
2022-11-20T21:14:27.297Z,94.37
2022-11-20T21:16:56.931Z,94.10
2022-11-20T21:19:26.805Z,94.43
2022-11-20T21:22:05.632Z,94.66
2022-11-20T21:24:36.489Z,95.05
2022-11-20T21:27:10.316Z,95.14
2022-11-20T21:29:39.525Z,94.99
2022-11-20T21:32:08.385Z,94.29
2022-11-20T21:34:39.370Z,94.50
2022-11-20T21:37:08.742Z,94.62
2022-11-20T21:39:50.892Z,94.78
2022-11-20T21:42:23.503Z,95.26
2022-11-20T21:44:52.220Z,95.34
2022-11-20T21:47:20.599Z,95.48
2022-11-20T21:49:49.546Z,94.99
2022-11-20T21:52:19.895Z,95.02
2022-11-20T21:54:51.962Z,95.40
2022-11-20T21:57:21.260Z,95.61
2022-11-20T21:59:52.423Z,95.98
2022-11-20T22:02:23.095Z,96.19
2022-11-20T22:04:54.623Z,96.50
2022-11-20T22:07:24.534Z,96.35
2022-11-20T22:09:56.477Z,96.64
2022-11-20T22:12:25.098Z,96.82
2022-11-20T22:14:55.662Z,96.81
2022-11-20T22:17:46.981Z,97.08
2022-11-20T22:20:23.762Z,96.77
2022-11-20T22:22:54.983Z,95.98
2022-11-20T22:25:26.595Z,95.27
2022-11-20T22:27:55.349Z,95.18
2022-11-20T22:30:23.967Z,95.50
2022-11-20T22:32:56.004Z,95.03
2022-11-20T22:35:24.762Z,95.24
2022-11-20T22:37:53.358Z,95.52
2022-11-20T22:40:21.799Z,95.66
2022-11-20T22:42:53.702Z,95.68
2022-11-20T22:45:22.213Z,95.35
2022-11-20T22:47:50.746Z,95.28
2022-11-20T22:50:23.565Z,95.73
2022-11-20T22:52:55.403Z,96.16
2022-11-20T22:55:28.541Z,96.08
2022-11-20T22:57:59.663Z,95.91
2022-11-20T23:00:29.156Z,96.34
2022-11-20T23:02:57.515Z,95.83
2022-11-20T23:05:26.107Z,95.56
2022-11-20T23:07:54.571Z,95.70
2022-11-20T23:10:28.330Z,95.62
2022-11-20T23:12:57.512Z,95.48
2022-11-20T23:15:28.788Z,94.92
2022-11-20T23:18:00.171Z,95.30
2022-11-20T23:20:30.265Z,95.08
2022-11-20T23:22:58.926Z,95.24
2022-11-20T23:25:28.369Z,94.76
2022-11-20T23:27:57.118Z,94.97
2022-11-20T23:30:29.221Z,94.93
2022-11-20T23:33:02.259Z,94.87
2022-11-20T23:35:30.749Z,94.72
2022-11-20T23:37:59.622Z,94.92
2022-11-20T23:40:32.376Z,95.02
2022-11-20T23:43:16.097Z,95.10
2022-11-20T23:45:52.528Z,95.02
2022-11-20T23:48:22.826Z,95.11
2022-11-20T23:50:52.400Z,95.42
2022-11-20T23:53:22.388Z,95.50
2022-11-20T23:55:53.361Z,95.70
2022-11-20T23:58:23.630Z,95.64
